createdAt,value
2018-05-03T00:00:06.127Z,11.80
2018-05-03T00:02:34.431Z,11.80
2018-05-03T00:05:02.760Z,11.80
2018-05-03T00:07:30.344Z,11.80
2018-05-03T00:09:57.959Z,11.90
2018-05-03T00:12:25.500Z,11.90
2018-05-03T00:14:53.851Z,11.80
2018-05-03T00:17:21.403Z,11.80
2018-05-03T00:19:48.981Z,11.80
2018-05-03T00:22:16.512Z,11.80
2018-05-03T00:24:44.084Z,11.80
2018-05-03T00:27:11.623Z,11.80
2018-05-03T00:29:39.176Z,11.80
2018-05-03T00:32:06.745Z,11.80
2018-05-03T00:34:34.301Z,11.80
2018-05-03T00:37:01.935Z,11.80
2018-05-03T00:39:29.475Z,11.90
2018-05-03T00:41:58.774Z,11.80
2018-05-03T00:44:27.083Z,11.80
2018-05-03T00:46:54.636Z,11.80
2018-05-03T00:49:22.185Z,11.80
2018-05-03T00:51:50.533Z,11.80
2018-05-03T00:54:29.939Z,11.80
2018-05-03T00:56:57.508Z,11.80
2018-05-03T00:59:25.076Z,11.80
2018-05-03T01:01:52.636Z,11.80
2018-05-03T01:04:20.194Z,11.80
2018-05-03T01:06:47.777Z,11.80
2018-05-03T01:09:16.282Z,11.80
2018-05-03T01:11:44.698Z,11.80
2018-05-03T01:14:12.225Z,11.80
2018-05-03T01:16:40.536Z,11.80
2018-05-03T01:19:08.097Z,11.80
2018-05-03T01:21:35.660Z,11.80
2018-05-03T01:24:03.193Z,11.80
2018-05-03T01:26:36.682Z,11.80
2018-05-03T01:29:04.997Z,11.70
2018-05-03T01:31:32.597Z,11.60
2018-05-03T01:34:00.131Z,11.70
2018-05-03T01:36:29.912Z,11.70
2018-05-03T01:38:57.464Z,11.60
2018-05-03T01:41:25.021Z,11.60
2018-05-03T01:43:52.586Z,11.60
2018-05-03T01:46:20.148Z,11.60
2018-05-03T01:48:47.702Z,11.60
2018-05-03T01:51:15.281Z,11.60
2018-05-03T01:53:42.851Z,11.60
2018-05-03T01:56:10.410Z,11.60
2018-05-03T01:58:37.959Z,11.60
2018-05-03T02:01:05.518Z,11.70
2018-05-03T02:03:33.090Z,11.70
2018-05-03T02:06:01.628Z,11.70
2018-05-03T02:08:29.988Z,11.70
2018-05-03T02:10:57.543Z,11.70
2018-05-03T02:13:25.130Z,11.70
2018-05-03T02:15:52.668Z,11.70
2018-05-03T02:18:20.265Z,11.70
2018-05-03T02:20:48.568Z,11.60
2018-05-03T02:23:16.141Z,11.50
2018-05-03T02:25:43.697Z,11.60
2018-05-03T02:28:11.246Z,11.60
2018-05-03T02:30:38.816Z,11.60
2018-05-03T02:33:06.353Z,11.60
2018-05-03T02:35:33.946Z,11.50
2018-05-03T02:38:01.493Z,11.50
2018-05-03T02:43:21.584Z,11.50
2018-05-03T02:45:49.157Z,11.50
2018-05-03T02:48:17.700Z,11.40
2018-05-03T02:50:46.018Z,11.30
2018-05-03T02:53:13.576Z,11.20
2018-05-03T02:55:41.142Z,11.20
2018-05-03T02:58:20.667Z,11.10
2018-05-03T03:01:05.889Z,11.00
2018-05-03T03:03:51.062Z,11.00
2018-05-03T03:10:02.433Z,11.00
2018-05-03T03:16:00.045Z,11.00
2018-05-03T03:18:45.174Z,10.90
2018-05-03T03:21:30.310Z,10.90
2018-05-03T03:24:15.546Z,10.80
2018-05-03T03:27:00.902Z,10.80
2018-05-03T03:29:43.341Z,10.80
2018-05-03T03:32:22.867Z,10.70
2018-05-03T03:38:22.618Z,10.60
2018-05-03T03:41:01.981Z,10.60
2018-05-03T03:43:41.339Z,10.50
2018-05-03T03:46:09.695Z,10.40
2018-05-03T03:48:37.265Z,10.40
2018-05-03T03:51:04.801Z,10.30
2018-05-03T03:53:32.325Z,10.30
2018-05-03T03:55:59.895Z,10.30
2018-05-03T03:58:27.423Z,10.30
2018-05-03T04:00:55.736Z,10.40
2018-05-03T04:03:23.265Z,10.30
2018-05-03T04:05:51.645Z,10.50
2018-05-03T04:08:24.105Z,10.50
2018-05-03T04:10:51.675Z,10.50
2018-05-03T04:13:20.018Z,10.40
2018-05-03T04:15:47.568Z,10.40
2018-05-03T04:18:27.105Z,10.40
2018-05-03T04:21:09.333Z,10.50
2018-05-03T04:23:48.799Z,10.50
2018-05-03T04:26:19.041Z,10.70
2018-05-03T04:28:46.579Z,10.70
2018-05-03T04:31:14.948Z,10.90
2018-05-03T04:33:43.279Z,11.00
2018-05-03T04:36:10.860Z,11.00
2018-05-03T04:38:38.390Z,11.10
2018-05-03T04:41:05.943Z,11.20
2018-05-03T04:43:33.527Z,11.30
2018-05-03T04:46:01.064Z,11.30
2018-05-03T04:48:28.617Z,11.30
2018-05-03T04:50:56.151Z,11.40
2018-05-03T04:53:24.463Z,11.50
2018-05-03T04:55:52.013Z,11.50
2018-05-03T04:58:19.574Z,11.70
2018-05-03T05:00:47.113Z,11.80
2018-05-03T05:03:15.435Z,12.20
2018-05-03T05:05:43.203Z,12.10
2018-05-03T05:08:10.810Z,12.30
2018-05-03T05:10:38.422Z,12.50
2018-05-03T05:13:05.933Z,12.60
2018-05-03T05:15:34.239Z,12.80
2018-05-03T05:18:01.852Z,12.80
2018-05-03T05:20:30.160Z,13.20
2018-05-03T05:23:04.477Z,13.20
2018-05-03T05:25:32.776Z,13.70
2018-05-03T05:28:00.311Z,13.70
2018-05-03T05:30:29.642Z,14.10
2018-05-03T05:32:59.104Z,14.10
2018-05-03T05:35:26.669Z,14.40
2018-05-03T05:37:54.281Z,14.50
2018-05-03T05:40:21.864Z,14.70
2018-05-03T05:42:49.412Z,14.60
2018-05-03T05:45:16.976Z,14.70
2018-05-03T05:47:44.521Z,14.70
2018-05-03T05:50:13.109Z,14.80
2018-05-03T05:52:40.661Z,15.20
2018-05-03T05:55:08.228Z,15.90
2018-05-03T05:57:35.769Z,16.80
2018-05-03T06:00:03.350Z,17.70
2018-05-03T06:02:30.894Z,18.20
2018-05-03T06:04:58.496Z,18.20
2018-05-03T06:07:26.073Z,18.20
2018-05-03T06:09:53.719Z,18.80
2018-05-03T06:12:21.315Z,19.70
2018-05-03T06:14:48.862Z,20.10
2018-05-03T06:17:16.492Z,21.00
2018-05-03T06:19:44.737Z,21.80
2018-05-03T06:22:12.301Z,21.80
2018-05-03T06:24:39.838Z,22.10
2018-05-03T06:27:08.176Z,22.40
2018-05-03T06:29:35.714Z,22.40
2018-05-03T06:32:03.271Z,22.40
2018-05-03T06:34:30.800Z,22.60
2018-05-03T06:36:59.132Z,22.30
2018-05-03T06:39:26.672Z,22.30
2018-05-03T06:41:54.243Z,20.90
2018-05-03T06:44:22.571Z,20.00
2018-05-03T06:46:50.885Z,19.90
2018-05-03T06:49:21.669Z,19.80
2018-05-03T06:51:49.227Z,19.70
2018-05-03T06:54:16.764Z,20.50
2018-05-03T06:56:44.356Z,21.20
2018-05-03T06:59:13.666Z,21.00
2018-05-03T07:01:41.970Z,20.50
2018-05-03T07:04:10.649Z,20.50
2018-05-03T07:06:38.107Z,20.70
2018-05-03T07:09:05.669Z,21.40
2018-05-03T07:11:33.228Z,22.80
2018-05-03T07:14:00.792Z,23.60
2018-05-03T07:16:28.350Z,23.30
2018-05-03T07:18:55.911Z,23.30
2018-05-03T07:21:23.558Z,23.40
2018-05-03T07:23:51.087Z,23.30
2018-05-03T07:26:18.591Z,23.20
2018-05-03T07:28:46.155Z,23.50
2018-05-03T07:31:13.692Z,22.10
2018-05-03T07:33:42.018Z,20.60
2018-05-03T07:36:09.558Z,20.60
2018-05-03T07:38:37.141Z,20.10
2018-05-03T07:41:04.681Z,19.60
2018-05-03T07:43:32.212Z,19.30
2018-05-03T07:46:00.554Z,18.40
2018-05-03T07:48:28.181Z,18.40
2018-05-03T07:50:55.710Z,18.20
2018-05-03T07:53:24.002Z,17.80
2018-05-03T07:55:51.567Z,17.70
2018-05-03T07:58:19.092Z,17.30
2018-05-03T08:00:46.661Z,17.40
2018-05-03T08:03:14.961Z,17.70
2018-05-03T08:05:42.640Z,17.70
2018-05-03T08:08:10.095Z,18.00
2018-05-03T08:10:37.668Z,19.00
2018-05-03T08:13:05.209Z,19.90
2018-05-03T08:15:32.773Z,20.10
2018-05-03T08:18:00.329Z,21.00
2018-05-03T08:20:27.894Z,21.70
2018-05-03T08:22:55.438Z,22.40
2018-05-03T08:25:23.013Z,22.70
2018-05-03T08:27:50.549Z,22.70
2018-05-03T08:30:18.895Z,24.00
2018-05-03T08:32:46.451Z,24.00
2018-05-03T08:35:14.033Z,24.60
2018-05-03T08:37:41.568Z,24.10
2018-05-03T08:40:09.133Z,23.00
2018-05-03T08:42:36.972Z,22.10
2018-05-03T08:45:04.538Z,22.40
2018-05-03T08:47:32.190Z,23.10
2018-05-03T08:49:59.771Z,24.10
2018-05-03T08:52:27.348Z,24.30
2018-05-03T08:54:54.899Z,24.20
2018-05-03T08:57:22.534Z,24.50
2018-05-03T08:59:51.072Z,24.50
2018-05-03T09:02:19.608Z,24.20
2018-05-03T09:04:47.127Z,24.40
2018-05-03T09:07:15.454Z,24.40
2018-05-03T09:09:43.009Z,24.40
2018-05-03T09:12:10.573Z,24.30
2018-05-03T09:14:38.108Z,24.40
2018-05-03T09:17:05.689Z,25.30
2018-05-03T09:19:33.235Z,25.60
2018-05-03T09:22:00.770Z,25.70
2018-05-03T09:24:29.084Z,25.30
2018-05-03T09:26:56.616Z,25.20
2018-05-03T09:29:24.178Z,25.20
2018-05-03T09:31:51.717Z,24.80
2018-05-03T09:34:20.085Z,24.80
2018-05-03T09:36:48.394Z,25.20
2018-05-03T09:39:16.058Z,25.20
2018-05-03T09:41:43.540Z,25.00
2018-05-03T09:44:14.376Z,25.00
2018-05-03T09:46:47.684Z,24.70
2018-05-03T09:49:16.275Z,24.90
2018-05-03T09:51:43.836Z,25.00
2018-05-03T09:54:11.396Z,25.20
2018-05-03T09:56:38.944Z,25.80
2018-05-03T09:59:06.519Z,25.60
2018-05-03T10:01:34.050Z,25.00
2018-05-03T10:04:05.195Z,25.70
2018-05-03T10:06:32.801Z,25.90
2018-05-03T10:09:00.341Z,25.70
2018-05-03T10:11:27.901Z,24.80
2018-05-03T10:13:55.436Z,24.90
2018-05-03T10:16:23.002Z,24.20
2018-05-03T10:18:50.562Z,23.70
2018-05-03T10:21:18.133Z,23.60
2018-05-03T10:23:45.677Z,23.60
2018-05-03T10:26:13.250Z,23.50
2018-05-03T10:28:40.806Z,23.60
2018-05-03T10:31:08.392Z,24.30
2018-05-03T10:33:35.921Z,24.80
2018-05-03T10:36:03.562Z,24.70
2018-05-03T10:38:31.100Z,25.00
2018-05-03T10:41:02.509Z,25.70
2018-05-03T10:43:31.042Z,25.60
2018-05-03T10:45:59.382Z,26.00
2018-05-03T10:48:26.921Z,25.90
2018-05-03T10:50:54.553Z,25.50
2018-05-03T10:53:22.113Z,25.20
2018-05-03T10:55:49.665Z,25.00
2018-05-03T10:58:17.281Z,24.90
2018-05-03T11:00:45.789Z,25.10
2018-05-03T11:03:15.122Z,25.30
2018-05-03T11:05:42.669Z,25.30
2018-05-03T11:08:11.004Z,24.70
2018-05-03T11:10:38.546Z,24.70
2018-05-03T11:13:06.113Z,25.00
2018-05-03T11:15:35.117Z,24.80
2018-05-03T11:18:02.678Z,24.80
2018-05-03T11:20:30.225Z,24.30
2018-05-03T11:22:57.808Z,23.60
2018-05-03T11:25:25.383Z,23.20
2018-05-03T11:27:53.717Z,24.20
2018-05-03T11:30:21.256Z,24.20
2018-05-03T11:32:48.812Z,25.00
2018-05-03T11:35:16.373Z,25.30
2018-05-03T11:37:43.907Z,24.80
2018-05-03T11:40:12.244Z,24.10
2018-05-03T11:42:39.881Z,24.00
2018-05-03T11:45:07.389Z,24.10
2018-05-03T11:47:34.948Z,24.10
2018-05-03T11:50:02.560Z,24.20
2018-05-03T11:52:30.117Z,24.10
2018-05-03T11:54:57.699Z,23.70
2018-05-03T11:57:25.241Z,23.50
2018-05-03T11:59:52.793Z,23.30
2018-05-03T12:02:20.342Z,22.90
2018-05-03T12:04:48.681Z,22.70
2018-05-03T12:07:16.215Z,22.70
2018-05-03T12:09:43.773Z,22.50
2018-05-03T12:12:11.345Z,22.50
2018-05-03T12:14:38.897Z,23.10
2018-05-03T12:17:06.446Z,23.40
2018-05-03T12:19:33.989Z,23.30
2018-05-03T12:22:01.550Z,22.30
2018-05-03T12:24:29.110Z,22.00
2018-05-03T12:26:56.672Z,21.30
2018-05-03T12:29:24.208Z,21.00
2018-05-03T12:31:51.792Z,21.00
2018-05-03T12:34:20.096Z,21.20
2018-05-03T12:36:47.678Z,21.20
2018-05-03T12:39:15.237Z,21.70
2018-05-03T12:41:42.805Z,22.10
2018-05-03T12:44:10.387Z,22.20
2018-05-03T12:46:37.936Z,22.20
2018-05-03T12:49:05.524Z,22.40
2018-05-03T12:51:33.127Z,22.90
2018-05-03T12:54:00.684Z,23.10
2018-05-03T12:56:28.238Z,22.90
2018-05-03T12:58:55.798Z,22.70
2018-05-03T13:01:24.243Z,22.70
2018-05-03T13:03:52.564Z,22.90
2018-05-03T13:06:20.097Z,22.90
2018-05-03T13:08:47.695Z,23.40
2018-05-03T13:11:15.294Z,23.30
2018-05-03T13:13:42.861Z,23.40
2018-05-03T13:16:10.402Z,23.10
2018-05-03T13:18:37.993Z,22.60
2018-05-03T13:21:05.530Z,22.30
2018-05-03T13:23:33.115Z,22.60
2018-05-03T13:26:01.432Z,22.40
2018-05-03T13:28:28.968Z,22.40
2018-05-03T13:30:58.462Z,22.30
2018-05-03T13:33:26.937Z,22.20
2018-05-03T13:35:56.466Z,21.80
2018-05-03T13:38:24.013Z,21.90
2018-05-03T13:40:51.604Z,21.80
2018-05-03T13:43:19.149Z,21.90
2018-05-03T13:45:46.709Z,22.00
2018-05-03T13:48:14.280Z,22.10
2018-05-03T13:50:41.838Z,22.10
2018-05-03T13:53:09.373Z,22.20
2018-05-03T13:55:36.992Z,21.80
2018-05-03T13:58:04.547Z,22.10
2018-05-03T14:00:32.157Z,22.10
2018-05-03T14:02:59.736Z,21.90
2018-05-03T14:05:27.297Z,21.70
2018-05-03T14:07:54.866Z,21.60
2018-05-03T14:10:22.410Z,21.80
2018-05-03T14:12:49.989Z,21.90
2018-05-03T14:15:17.594Z,21.60
2018-05-03T14:17:45.957Z,21.50
2018-05-03T14:20:13.689Z,21.50
2018-05-03T14:22:41.279Z,21.30
2018-05-03T14:25:08.813Z,21.20
2018-05-03T14:27:36.385Z,21.30
2018-05-03T14:30:03.930Z,21.20
2018-05-03T14:32:31.512Z,21.00
2018-05-03T14:34:59.061Z,21.30
2018-05-03T14:37:26.632Z,21.40
2018-05-03T14:39:54.202Z,21.20
2018-05-03T14:42:21.804Z,21.10
2018-05-03T14:44:49.358Z,21.20
2018-05-03T14:47:17.747Z,21.20
2018-05-03T14:49:45.243Z,21.20
2018-05-03T14:52:13.552Z,21.30
2018-05-03T14:54:41.111Z,21.30
2018-05-03T14:57:08.652Z,21.00
2018-05-03T14:59:36.233Z,20.90
2018-05-03T15:02:03.789Z,20.80
2018-05-03T15:04:31.501Z,20.90
2018-05-03T15:06:59.048Z,21.30
2018-05-03T15:09:26.686Z,21.40
2018-05-03T15:11:54.268Z,21.10
2018-05-03T15:14:21.834Z,21.00
2018-05-03T15:16:49.376Z,20.60
2018-05-03T15:19:17.715Z,20.40
2018-05-03T15:21:46.020Z,20.30
2018-05-03T15:24:13.687Z,20.30
2018-05-03T15:26:41.192Z,20.20
2018-05-03T15:29:08.774Z,20.30
2018-05-03T15:31:36.326Z,20.40
2018-05-03T15:34:04.569Z,20.50
2018-05-03T15:36:32.117Z,20.50
2018-05-03T15:38:59.672Z,20.10
2018-05-03T15:41:28.049Z,19.60
2018-05-03T15:43:56.357Z,19.20
2018-05-03T15:46:23.958Z,19.20
2018-05-03T15:48:51.522Z,19.30
2018-05-03T15:51:20.059Z,19.20
2018-05-03T15:53:47.682Z,19.10
2018-05-03T15:56:16.209Z,19.00
2018-05-03T15:58:43.742Z,19.00
2018-05-03T16:01:11.331Z,18.90
2018-05-03T16:03:38.870Z,18.80
2018-05-03T16:06:06.486Z,18.70
2018-05-03T16:08:34.061Z,18.70
2018-05-03T16:11:01.634Z,18.60
2018-05-03T16:13:29.180Z,18.50
2018-05-03T16:15:56.773Z,18.30
2018-05-03T16:18:24.325Z,18.30
2018-05-03T16:20:52.638Z,18.20
2018-05-03T16:23:20.216Z,18.20
2018-05-03T16:25:47.769Z,18.10
2018-05-03T16:28:15.332Z,18.20
2018-05-03T16:30:43.206Z,18.10
2018-05-03T16:33:10.850Z,18.00
2018-05-03T16:35:38.408Z,18.00
2018-05-03T16:38:05.972Z,18.00
2018-05-03T17:24:15.536Z,18.00
2018-05-03T17:26:43.078Z,16.50
2018-05-03T17:29:10.673Z,16.40
2018-05-03T17:31:38.213Z,16.30
2018-05-03T17:34:05.764Z,16.30
2018-05-03T17:36:33.437Z,16.30
2018-05-03T17:39:01.046Z,16.20
2018-05-03T17:41:28.618Z,16.10
2018-05-03T17:43:56.203Z,16.00
2018-05-03T17:46:23.781Z,15.90
2018-05-03T17:48:51.320Z,15.70
2018-05-03T17:51:18.982Z,15.60
2018-05-03T17:53:46.458Z,15.40
2018-05-03T17:56:14.042Z,15.30
2018-05-03T17:58:41.573Z,15.20
2018-05-03T18:01:09.138Z,15.10
2018-05-03T18:03:36.685Z,15.00
2018-05-03T18:06:06.207Z,14.90
2018-05-03T18:08:34.767Z,14.70
2018-05-03T18:11:02.339Z,14.60
2018-05-03T18:13:29.864Z,14.60
2018-05-03T18:15:57.438Z,14.50
2018-05-03T18:18:24.984Z,14.40
2018-05-03T18:20:52.577Z,14.30
2018-05-03T18:23:20.130Z,14.20
2018-05-03T18:25:47.736Z,14.10
2018-05-03T18:28:15.333Z,14.00
2018-05-03T18:30:43.172Z,13.90
2018-05-03T18:33:10.763Z,13.90
2018-05-03T18:35:38.309Z,13.80
2018-05-03T18:38:06.678Z,13.70
2018-05-03T18:40:34.188Z,13.70
2018-05-03T18:43:01.761Z,13.70
2018-05-03T18:45:29.305Z,13.50
2018-05-03T18:47:56.868Z,13.50
2018-05-03T18:50:24.412Z,13.50
2018-05-03T18:52:51.987Z,13.40
2018-05-03T18:55:19.518Z,13.40
2018-05-03T18:57:47.841Z,13.20
2018-05-03T19:00:15.384Z,13.20
2018-05-03T19:02:42.991Z,13.20
2018-05-03T19:05:10.556Z,13.10
2018-05-03T19:07:38.138Z,13.00
2018-05-03T19:10:05.712Z,13.00
2018-05-03T19:12:33.264Z,13.00
2018-05-03T19:15:00.834Z,12.90
2018-05-03T19:17:28.380Z,12.90
2018-05-03T19:19:56.697Z,12.70
2018-05-03T19:22:25.241Z,12.70
2018-05-03T19:24:53.584Z,12.50
2018-05-03T19:27:21.133Z,12.50
2018-05-03T19:29:48.710Z,12.40
2018-05-03T19:32:16.248Z,12.30
2018-05-03T19:34:43.833Z,12.20
2018-05-03T19:37:11.394Z,12.20
2018-05-03T19:39:38.955Z,12.00
2018-05-03T19:42:06.492Z,12.00
2018-05-03T19:44:34.075Z,11.90
2018-05-03T19:47:01.613Z,11.90
2018-05-03T19:49:29.179Z,11.80
2018-05-03T19:51:56.751Z,11.70
2018-05-03T19:54:24.293Z,11.70
2018-05-03T19:56:51.855Z,11.60
2018-05-03T19:59:19.396Z,11.50
2018-05-03T20:01:46.975Z,11.50
2018-05-03T20:04:14.539Z,11.50
2018-05-03T20:06:42.118Z,11.50
2018-05-03T20:09:09.727Z,11.40
2018-05-03T20:11:37.281Z,11.40
2018-05-03T20:14:04.880Z,11.40
2018-05-03T20:16:32.452Z,11.30
2018-05-03T20:18:59.996Z,11.30
2018-05-03T20:21:27.543Z,11.20
2018-05-03T20:23:56.012Z,11.10
2018-05-03T20:26:23.587Z,11.00
2018-05-03T20:28:51.125Z,11.00
2018-05-03T20:31:18.722Z,11.00
2018-05-03T20:33:47.092Z,10.80
2018-05-03T20:36:14.636Z,10.80
2018-05-03T20:38:42.194Z,10.80
2018-05-03T20:41:09.727Z,10.80
2018-05-03T20:43:38.160Z,10.90
2018-05-03T20:46:06.806Z,10.90
2018-05-03T20:48:34.325Z,10.90
2018-05-03T20:51:01.883Z,10.90
2018-05-03T20:53:29.444Z,10.90
2018-05-03T20:55:57.021Z,10.80
2018-05-03T20:58:25.346Z,10.70
2018-05-03T21:00:52.887Z,10.70
2018-05-03T21:03:20.459Z,10.70
2018-05-03T21:05:48.009Z,10.60
2018-05-03T21:08:15.591Z,10.60
2018-05-03T21:10:43.156Z,10.60
2018-05-03T21:13:10.708Z,10.60
2018-05-03T21:15:38.257Z,10.50
2018-05-03T21:18:05.823Z,10.50
2018-05-03T21:20:33.380Z,10.50
2018-05-03T21:23:00.912Z,10.50
2018-05-03T21:25:29.237Z,10.30
2018-05-03T21:27:56.787Z,10.30
2018-05-03T21:30:25.244Z,10.30
2018-05-03T21:32:53.546Z,10.40
2018-05-03T21:35:21.112Z,10.30
2018-05-03T21:37:48.652Z,10.30
2018-05-03T21:40:16.216Z,10.30
2018-05-03T21:42:44.911Z,10.10
2018-05-03T21:45:12.505Z,10.10
2018-05-03T21:47:40.050Z,10.00
2018-05-03T21:50:07.607Z,9.90
2018-05-03T21:52:35.176Z,9.90
2018-05-03T21:55:02.819Z,9.80
2018-05-03T21:57:30.359Z,9.80
2018-05-03T21:59:57.946Z,9.70
2018-05-03T22:02:25.481Z,9.60
2018-05-03T22:04:53.168Z,9.40
2018-05-03T22:07:20.716Z,9.40
2018-05-03T22:09:48.272Z,9.30
2018-05-03T22:12:15.815Z,9.20
2018-05-03T22:14:44.145Z,9.10
2018-05-03T22:17:11.716Z,9.10
2018-05-03T22:19:39.255Z,9.10
2018-05-03T22:22:06.808Z,9.10
2018-05-03T22:24:34.359Z,9.00
2018-05-03T22:27:01.903Z,9.00
2018-05-03T22:29:29.432Z,8.90
2018-05-03T22:31:57.007Z,8.90
2018-05-03T22:34:24.542Z,8.90
2018-05-03T22:36:52.107Z,8.90
2018-05-03T22:39:19.672Z,8.80
2018-05-03T22:41:47.215Z,8.80
2018-05-03T22:44:14.780Z,8.70
2018-05-03T22:46:42.323Z,8.60
2018-05-03T22:49:09.847Z,8.60
2018-05-03T22:51:37.405Z,8.50
2018-05-03T22:54:04.942Z,8.50
2018-05-03T22:56:33.238Z,8.40
2018-05-03T22:59:00.801Z,8.40
2018-05-03T23:01:28.358Z,8.40
2018-05-03T23:03:55.910Z,8.30
2018-05-03T23:06:24.243Z,8.30
2018-05-03T23:08:51.824Z,8.30
2018-05-03T23:11:19.344Z,8.30
2018-05-03T23:13:46.896Z,8.30
2018-05-03T23:16:14.429Z,8.40
2018-05-03T23:18:42.742Z,8.30
2018-05-03T23:21:10.321Z,8.30
2018-05-03T23:23:37.887Z,8.30
2018-05-03T23:26:05.411Z,8.30
2018-05-03T23:28:32.964Z,8.20
2018-05-03T23:31:00.499Z,8.20
2018-05-03T23:33:28.810Z,8.00
2018-05-03T23:35:56.358Z,8.00
2018-05-03T23:38:23.939Z,8.00
2018-05-03T23:41:05.533Z,7.90
2018-05-03T23:43:33.121Z,7.80
2018-05-03T23:46:00.652Z,7.80
2018-05-03T23:48:28.196Z,7.70
2018-05-03T23:50:55.782Z,7.60
2018-05-03T23:53:23.333Z,7.50
2018-05-03T23:55:50.891Z,7.40
2018-05-03T23:58:18.453Z,7.40
